createdAt,value
2023-02-25T00:09:35.608Z,97.99
2023-02-25T00:19:35.668Z,96.20
2023-02-25T00:29:35.992Z,96.02
2023-02-25T00:39:36.075Z,95.65
2023-02-25T00:49:36.153Z,95.32
2023-02-25T00:59:36.393Z,96.21
2023-02-25T01:09:36.714Z,95.18
2023-02-25T01:19:36.753Z,95.39
2023-02-25T01:29:37.210Z,94.76
2023-02-25T01:39:37.242Z,95.64
2023-02-25T01:49:37.573Z,95.22
2023-02-25T01:59:37.599Z,95.78
2023-02-25T02:09:38.856Z,95.68
2023-02-25T02:19:38.104Z,95.99
2023-02-25T02:29:38.422Z,95.68
2023-02-25T02:39:38.461Z,95.47
2023-02-25T02:49:38.777Z,95.47
2023-02-25T02:59:38.877Z,95.68
2023-02-25T03:09:38.936Z,96.51
2023-02-25T03:19:39.178Z,97.13
2023-02-25T03:29:41.671Z,97.75
2023-02-25T03:39:39.508Z,98.07
2023-02-25T03:49:39.813Z,98.07
2023-02-25T03:59:39.820Z,97.28
2023-02-25T04:09:40.156Z,96.81
2023-02-25T04:19:40.183Z,95.57
2023-02-25T04:29:40.527Z,95.68
2023-02-25T04:39:40.570Z,95.51
2023-02-25T04:49:40.896Z,95.26
2023-02-25T04:59:40.940Z,95.57
2023-02-25T05:09:41.276Z,94.85
2023-02-25T05:19:41.306Z,95.78
2023-02-25T05:29:41.702Z,96.20
2023-02-25T05:39:41.800Z,96.61
2023-02-25T05:49:44.078Z,97.24
2023-02-25T05:59:42.113Z,97.17
2023-02-25T06:09:42.480Z,97.07
2023-02-25T06:19:42.515Z,97.12
2023-02-25T06:29:42.854Z,96.50
2023-02-25T06:39:42.886Z,96.39
2023-02-25T06:49:43.220Z,96.12
2023-02-25T06:59:43.247Z,95.98
2023-02-25T07:09:43.600Z,96.08
2023-02-25T07:19:43.636Z,96.86
2023-02-25T07:29:43.965Z,96.70
2023-02-25T07:39:45.178Z,96.76
2023-02-25T07:49:44.127Z,96.86
2023-02-25T07:59:44.385Z,97.69
2023-02-25T08:09:45.619Z,97.69
2023-02-25T08:19:44.851Z,97.69
2023-02-25T08:29:45.183Z,97.96
2023-02-25T08:39:45.216Z,97.91
2023-02-25T08:49:45.672Z,97.19
2023-02-25T08:59:45.709Z,96.31
2023-02-25T09:09:46.050Z,94.66
2023-02-25T09:19:46.048Z,94.24
2023-02-25T09:29:46.394Z,92.80
2023-02-25T09:39:46.529Z,91.82
2023-02-25T09:49:46.893Z,90.06
2023-02-25T09:59:47.134Z,90.95
2023-02-25T10:09:47.171Z,90.53
2023-02-25T10:19:47.395Z,92.15
2023-02-25T10:29:47.653Z,92.52
2023-02-25T10:39:47.912Z,91.17
2023-02-25T10:49:48.193Z,92.11
2023-02-25T10:59:48.264Z,92.00
2023-02-25T11:09:48.364Z,91.65
2023-02-25T11:19:50.250Z,90.00
2023-02-25T11:29:48.522Z,89.48
2023-02-25T11:39:48.545Z,88.28
2023-02-25T11:49:49.095Z,88.80
2023-02-25T11:59:48.932Z,88.59
2023-02-25T12:09:49.248Z,89.09
2023-02-25T12:19:49.275Z,88.30
2023-02-25T12:29:49.618Z,88.61
2023-02-25T12:39:49.658Z,87.10
2023-02-25T12:49:50.008Z,88.03
2023-02-25T12:59:50.064Z,86.17
2023-02-25T13:09:51.920Z,86.68
2023-02-25T13:19:50.494Z,87.45
2023-02-25T13:29:52.588Z,87.87
2023-02-25T13:39:50.744Z,89.11
2023-02-25T13:49:50.900Z,91.68
2023-02-25T13:59:50.949Z,94.05
2023-02-25T14:09:51.446Z,94.92
2023-02-25T14:19:51.325Z,96.17
2023-02-25T14:29:51.851Z,95.79
2023-02-25T14:39:52.018Z,93.82
2023-02-25T14:49:52.133Z,93.53
2023-02-25T14:59:52.372Z,90.31
2023-02-25T15:09:52.478Z,89.96
2023-02-25T15:19:52.586Z,89.13
2023-02-25T15:29:52.764Z,86.02
2023-02-25T15:39:54.374Z,87.26
2023-02-25T15:49:53.075Z,92.69
2023-02-25T15:59:53.218Z,68.63
2023-02-25T16:09:53.149Z,70.86
2023-02-25T16:19:53.485Z,82.44
2023-02-25T16:29:53.737Z,83.24
2023-02-25T16:39:53.995Z,84.28
2023-02-25T16:49:53.929Z,85.97
2023-02-25T16:59:54.225Z,83.42
2023-02-25T17:09:54.467Z,84.88
2023-02-25T17:19:54.410Z,84.15
2023-02-25T17:29:54.624Z,88.40
2023-02-25T17:39:54.847Z,82.94
2023-02-25T17:49:54.841Z,85.74
2023-02-25T17:59:55.076Z,87.92
2023-02-25T18:09:55.240Z,87.40
2023-02-25T18:19:55.417Z,86.57
2023-02-25T18:29:55.598Z,89.06
2023-02-25T18:39:55.810Z,88.17
2023-02-25T18:49:55.990Z,87.90
2023-02-25T18:59:56.318Z,87.48
2023-02-25T19:10:00.120Z,89.00
2023-02-25T19:19:56.493Z,90.19
2023-02-25T19:29:56.772Z,85.93
2023-02-25T19:39:57.475Z,84.78
2023-02-25T19:49:56.865Z,86.51
2023-02-25T19:59:57.013Z,84.99
2023-02-25T20:09:57.284Z,83.01
2023-02-25T20:19:57.237Z,83.60
2023-02-25T20:29:58.505Z,85.10
2023-02-25T20:39:57.529Z,84.82
2023-02-25T20:49:57.811Z,86.63
2023-02-25T20:59:58.593Z,86.00
2023-02-25T21:09:58.089Z,86.57
2023-02-25T21:19:57.966Z,85.31
2023-02-25T21:29:58.358Z,85.06
2023-02-25T21:39:58.300Z,82.89
2023-02-25T21:49:58.791Z,84.90
2023-02-25T21:59:58.722Z,87.96
2023-02-25T22:09:59.029Z,87.75
2023-02-25T22:19:59.090Z,88.79
2023-02-25T22:29:59.409Z,89.17
2023-02-25T22:39:59.444Z,89.73
2023-02-25T22:49:59.783Z,90.56
2023-02-25T22:59:59.830Z,91.50
2023-02-25T23:10:00.193Z,92.58
2023-02-25T23:20:00.262Z,93.24
2023-02-25T23:30:00.422Z,92.75
2023-02-25T23:40:00.463Z,93.00
2023-02-25T23:50:00.804Z,91.69
